createdAt,value
2019-03-24T00:00:17.741Z,65.64
2019-03-24T00:02:50.332Z,65.87
2019-03-24T00:05:21.341Z,64.89
2019-03-24T00:07:52.424Z,64.60
2019-03-24T00:10:23.398Z,64.00
2019-03-24T00:12:55.480Z,65.25
2019-03-24T00:15:26.913Z,65.44
2019-03-24T00:17:57.930Z,65.62
2019-03-24T00:20:28.903Z,66.22
2019-03-24T00:22:59.816Z,65.32
2019-03-24T00:25:31.854Z,65.83
2019-03-24T00:28:02.778Z,66.16
2019-03-24T00:30:33.848Z,66.21
2019-03-24T00:33:04.759Z,65.73
2019-03-24T00:35:35.763Z,65.92
2019-03-24T00:38:06.681Z,66.67
2019-03-24T00:40:37.706Z,66.12
2019-03-24T00:43:08.645Z,65.86
2019-03-24T00:45:39.588Z,65.81
2019-03-24T00:48:10.523Z,65.62
2019-03-24T00:50:41.570Z,66.07
2019-03-24T00:53:12.491Z,65.72
2019-03-24T00:55:43.515Z,65.52
2019-03-24T00:58:14.537Z,64.94
2019-03-24T01:00:52.284Z,64.70
2019-03-24T01:03:23.363Z,64.53
2019-03-24T01:05:54.392Z,63.91
2019-03-24T01:08:25.359Z,63.40
2019-03-24T01:10:56.340Z,63.00
2019-03-24T01:13:28.259Z,62.92
2019-03-24T01:15:59.286Z,62.62
2019-03-24T01:18:30.205Z,62.33
2019-03-24T01:21:01.198Z,62.28
2019-03-24T01:23:32.210Z,62.11
2019-03-24T01:26:03.175Z,62.18
2019-03-24T01:28:34.164Z,61.97
2019-03-24T01:31:05.164Z,62.06
2019-03-24T01:33:36.171Z,61.96
2019-03-24T01:36:07.140Z,62.21
2019-03-24T01:38:38.028Z,62.17
2019-03-24T01:41:09.063Z,61.73
2019-03-24T01:43:40.016Z,61.42
2019-03-24T01:46:11.985Z,61.54
2019-03-24T01:48:42.886Z,61.27
2019-03-24T01:51:13.849Z,60.99
2019-03-24T01:53:44.914Z,61.38
2019-03-24T01:56:15.876Z,61.47
2019-03-24T01:58:46.925Z,60.81
2019-03-24T02:01:17.880Z,60.56
2019-03-24T02:03:48.886Z,60.36
2019-03-24T02:06:19.923Z,60.57
2019-03-24T02:08:51.005Z,60.44
2019-03-24T02:11:21.977Z,60.26
2019-03-24T02:13:53.766Z,60.42
2019-03-24T02:16:24.874Z,60.50
2019-03-24T02:18:55.809Z,60.07
2019-03-24T02:21:26.825Z,59.94
2019-03-24T02:23:57.730Z,59.64
2019-03-24T02:26:28.788Z,59.70
2019-03-24T02:28:59.700Z,59.57
2019-03-24T02:31:30.696Z,59.90
2019-03-24T02:34:01.621Z,59.69
2019-03-24T02:36:32.666Z,59.64
2019-03-24T02:39:03.854Z,59.53
2019-03-24T02:41:34.872Z,59.72
2019-03-24T02:44:05.782Z,59.40
2019-03-24T02:46:36.738Z,59.48
2019-03-24T02:49:07.645Z,59.71
2019-03-24T02:51:39.765Z,60.05
2019-03-24T02:54:10.758Z,60.31
2019-03-24T02:56:41.770Z,60.35
2019-03-24T02:59:12.670Z,60.30
2019-03-24T03:01:43.627Z,60.12
2019-03-24T03:04:14.628Z,59.63
2019-03-24T03:06:45.562Z,59.51
2019-03-24T03:09:16.525Z,59.41
2019-03-24T03:11:47.687Z,59.41
2019-03-24T03:14:19.408Z,59.26
2019-03-24T03:16:50.468Z,59.26
2019-03-24T03:19:22.457Z,59.12
2019-03-24T03:21:53.496Z,59.08
2019-03-24T03:24:24.403Z,59.09
2019-03-24T03:26:55.444Z,59.05
2019-03-24T03:29:26.497Z,58.85
2019-03-24T03:31:57.524Z,58.76
2019-03-24T03:34:28.433Z,58.75
2019-03-24T03:36:59.384Z,58.82
2019-03-24T03:39:30.266Z,58.89
2019-03-24T03:42:01.199Z,58.67
2019-03-24T03:44:32.141Z,58.70
2019-03-24T03:47:03.116Z,58.57
2019-03-24T03:49:34.004Z,58.40
2019-03-24T03:52:06.962Z,58.27
2019-03-24T03:54:37.874Z,58.40
2019-03-24T03:57:08.922Z,58.26
2019-03-24T03:59:42.330Z,58.29
2019-03-24T04:02:14.935Z,58.35
2019-03-24T04:04:45.976Z,58.04
2019-03-24T04:07:16.941Z,58.01
2019-03-24T04:09:47.880Z,58.05
2019-03-24T04:12:18.816Z,57.93
2019-03-24T04:14:50.717Z,57.47
2019-03-24T04:17:21.813Z,57.38
2019-03-24T04:19:52.869Z,57.35
2019-03-24T04:22:23.871Z,57.20
2019-03-24T04:24:55.009Z,57.16
2019-03-24T04:27:26.161Z,57.08
2019-03-24T04:29:57.129Z,57.48
2019-03-24T04:32:28.109Z,57.61
2019-03-24T04:34:59.018Z,57.89
2019-03-24T04:37:29.985Z,57.72
2019-03-24T04:40:00.981Z,57.47
2019-03-24T04:42:32.011Z,57.27
2019-03-24T04:45:02.942Z,57.18
2019-03-24T04:47:33.964Z,56.85
2019-03-24T04:50:09.429Z,56.89
2019-03-24T04:52:40.369Z,56.72
2019-03-24T04:55:11.490Z,56.83
2019-03-24T04:57:42.516Z,56.83
2019-03-24T05:00:13.532Z,56.70
2019-03-24T05:02:44.574Z,56.44
2019-03-24T05:05:15.536Z,56.35
2019-03-24T05:07:46.487Z,56.84
2019-03-24T05:10:28.896Z,56.80
2019-03-24T05:13:00.016Z,56.61
2019-03-24T05:15:31.782Z,56.45
2019-03-24T05:18:02.775Z,56.22
2019-03-24T05:20:33.734Z,55.87
2019-03-24T05:23:04.719Z,56.30
2019-03-24T05:25:35.648Z,55.94
2019-03-24T05:28:06.577Z,55.92
2019-03-24T05:30:37.511Z,55.68
2019-03-24T05:33:08.543Z,55.86
2019-03-24T05:35:39.579Z,55.90
2019-03-24T05:38:10.506Z,56.12
2019-03-24T05:40:41.466Z,56.37
2019-03-24T05:43:12.465Z,56.58
2019-03-24T05:45:45.690Z,56.41
2019-03-24T05:48:17.826Z,56.27
2019-03-24T05:50:51.752Z,56.38
2019-03-24T05:53:22.691Z,55.94
2019-03-24T05:55:53.806Z,55.78
2019-03-24T05:58:25.899Z,55.77
2019-03-24T06:00:56.840Z,55.63
2019-03-24T06:03:27.821Z,55.11
2019-03-24T06:05:58.819Z,54.84
2019-03-24T06:08:29.758Z,54.22
2019-03-24T06:11:00.746Z,54.11
2019-03-24T06:13:31.826Z,53.56
2019-03-24T06:16:03.731Z,53.40
2019-03-24T06:18:34.772Z,52.51
2019-03-24T06:21:07.414Z,51.84
2019-03-24T06:23:38.458Z,51.26
2019-03-24T06:26:09.366Z,51.00
2019-03-24T06:28:40.298Z,50.64
2019-03-24T06:31:11.225Z,50.17
2019-03-24T06:33:42.290Z,49.52
2019-03-24T06:36:13.197Z,49.38
2019-03-24T06:38:44.145Z,49.02
2019-03-24T06:41:15.066Z,48.71
2019-03-24T06:43:46.064Z,48.46
2019-03-24T06:46:17.044Z,48.71
2019-03-24T06:48:48.064Z,48.84
2019-03-24T06:51:19.141Z,49.01
2019-03-24T06:53:50.213Z,48.61
2019-03-24T06:56:21.255Z,48.32
2019-03-24T06:58:52.400Z,47.88
2019-03-24T07:01:23.375Z,47.49
2019-03-24T07:03:54.519Z,46.85
2019-03-24T07:06:27.135Z,46.67
2019-03-24T07:08:58.260Z,46.26
2019-03-24T07:11:29.249Z,45.94
2019-03-24T07:14:00.266Z,45.70
2019-03-24T07:16:33.536Z,44.66
2019-03-24T07:19:04.561Z,43.86
2019-03-24T07:21:35.484Z,44.26
2019-03-24T07:24:08.778Z,43.33
2019-03-24T07:26:39.702Z,43.42
2019-03-24T07:29:10.692Z,43.17
2019-03-24T07:31:41.688Z,43.06
2019-03-24T07:34:12.728Z,43.06
2019-03-24T07:36:43.822Z,42.58
2019-03-24T07:39:15.254Z,42.79
2019-03-24T07:41:46.240Z,42.73
2019-03-24T07:44:17.354Z,42.95
2019-03-24T07:46:49.447Z,42.78
2019-03-24T07:49:20.478Z,42.92
2019-03-24T07:51:51.561Z,42.98
2019-03-24T07:54:22.545Z,43.37
2019-03-24T07:56:53.453Z,42.94
2019-03-24T07:59:24.492Z,42.74
2019-03-24T08:01:55.488Z,42.34
2019-03-24T08:04:26.446Z,41.82
2019-03-24T08:06:57.404Z,42.08
2019-03-24T08:09:28.424Z,42.59
2019-03-24T08:11:59.404Z,41.54
2019-03-24T08:14:30.399Z,40.99
2019-03-24T08:17:02.154Z,40.74
2019-03-24T08:19:33.293Z,41.80
2019-03-24T08:22:04.265Z,43.92
2019-03-24T08:24:35.294Z,44.36
2019-03-24T08:27:09.283Z,44.96
2019-03-24T08:29:40.307Z,45.52
2019-03-24T08:32:11.261Z,45.73
2019-03-24T08:34:42.202Z,45.71
2019-03-24T08:37:13.205Z,45.84
2019-03-24T08:39:44.245Z,45.97
2019-03-24T08:42:15.201Z,46.21
2019-03-24T08:44:48.317Z,46.34
2019-03-24T08:47:19.307Z,46.41
2019-03-24T08:49:51.973Z,45.96
2019-03-24T08:52:22.970Z,46.09
2019-03-24T08:54:54.007Z,45.79
2019-03-24T08:57:25.042Z,45.93
2019-03-24T08:59:56.010Z,45.29
2019-03-24T09:02:27.027Z,44.74
2019-03-24T09:04:58.159Z,44.95
2019-03-24T09:07:29.129Z,44.82
2019-03-24T09:10:00.168Z,45.23
2019-03-24T09:12:31.409Z,44.88
2019-03-24T09:15:02.353Z,45.12
2019-03-24T09:17:33.653Z,45.76
2019-03-24T09:20:05.520Z,45.71
2019-03-24T09:22:36.619Z,45.97
2019-03-24T09:25:07.970Z,46.29
2019-03-24T09:27:38.990Z,46.40
2019-03-24T09:30:27.788Z,45.85
2019-03-24T09:32:58.808Z,45.47
2019-03-24T09:35:29.782Z,44.91
2019-03-24T09:38:01.876Z,44.64
2019-03-24T09:40:34.144Z,44.31
2019-03-24T09:43:05.593Z,44.51
2019-03-24T09:45:36.635Z,44.42
2019-03-24T09:48:07.551Z,44.32
2019-03-24T09:50:38.517Z,44.17
2019-03-24T09:53:09.451Z,44.69
2019-03-24T09:55:40.388Z,44.23
2019-03-24T09:58:11.298Z,44.34
2019-03-24T10:01:00.780Z,44.80
2019-03-24T10:03:31.786Z,44.59
2019-03-24T10:06:02.781Z,44.40
2019-03-24T10:08:33.752Z,44.22
2019-03-24T10:11:07.398Z,44.06
2019-03-24T10:13:41.275Z,44.03
2019-03-24T10:16:26.389Z,43.73
2019-03-24T10:18:58.228Z,43.47
2019-03-24T10:21:29.226Z,43.03
2019-03-24T10:24:00.164Z,42.85
2019-03-24T10:26:32.316Z,42.54
2019-03-24T10:29:03.276Z,42.61
2019-03-24T10:31:34.319Z,42.03
2019-03-24T10:34:05.345Z,41.68
2019-03-24T10:36:39.447Z,41.59
2019-03-24T10:39:13.130Z,41.23
2019-03-24T10:41:43.313Z,41.46
2019-03-24T10:44:14.294Z,41.85
2019-03-24T10:46:45.302Z,42.20
2019-03-24T10:49:24.694Z,41.80
2019-03-24T10:51:51.840Z,41.62
2019-03-24T10:54:22.744Z,41.91
2019-03-24T10:56:53.843Z,41.52
2019-03-24T10:59:26.924Z,41.66
2019-03-24T11:01:59.950Z,41.78
2019-03-24T11:04:31.156Z,42.07
2019-03-24T11:07:02.290Z,42.04
2019-03-24T11:09:33.427Z,42.87
2019-03-24T11:12:04.480Z,43.11
2019-03-24T11:14:36.498Z,43.11
2019-03-24T11:17:07.540Z,43.36
2019-03-24T11:19:41.220Z,43.08
2019-03-24T11:22:18.469Z,43.39
2019-03-24T11:24:50.599Z,43.27
2019-03-24T11:27:21.725Z,43.31
2019-03-24T11:29:52.771Z,43.35
2019-03-24T11:32:23.739Z,43.85
2019-03-24T11:34:54.745Z,44.81
2019-03-24T11:37:25.869Z,44.71
2019-03-24T11:39:56.853Z,45.34
2019-03-24T11:42:29.614Z,45.32
2019-03-24T11:45:00.888Z,45.51
2019-03-24T11:47:32.043Z,45.91
2019-03-24T11:50:05.175Z,46.71
2019-03-24T11:52:36.782Z,47.31
2019-03-24T11:55:08.582Z,47.68
2019-03-24T11:57:42.021Z,47.28
2019-03-24T12:00:14.740Z,47.57
2019-03-24T12:02:47.311Z,46.98
2019-03-24T12:05:18.557Z,47.04
2019-03-24T12:07:51.447Z,47.34
2019-03-24T12:10:22.516Z,47.81
2019-03-24T12:12:53.772Z,48.08
2019-03-24T12:15:25.024Z,47.81
2019-03-24T12:17:56.116Z,47.08
2019-03-24T12:20:27.956Z,47.09
2019-03-24T12:22:59.066Z,47.19
2019-03-24T12:25:30.130Z,47.12
2019-03-24T12:28:01.170Z,46.82
2019-03-24T12:30:32.245Z,47.06
2019-03-24T12:33:03.180Z,46.84
2019-03-24T12:35:36.459Z,46.66
2019-03-24T12:38:07.467Z,47.25
2019-03-24T12:40:39.591Z,47.23
2019-03-24T12:43:18.928Z,47.39
2019-03-24T12:45:43.427Z,47.48
2019-03-24T12:48:18.103Z,47.66
2019-03-24T12:50:49.053Z,46.78
2019-03-24T12:53:20.043Z,46.82
2019-03-24T12:55:50.979Z,46.63
2019-03-24T12:58:23.508Z,46.33
2019-03-24T13:00:54.615Z,46.23
2019-03-24T13:03:25.742Z,46.29
2019-03-24T13:05:56.808Z,46.57
2019-03-24T13:08:27.866Z,46.13
2019-03-24T13:10:58.818Z,46.16
2019-03-24T13:13:29.931Z,46.03
2019-03-24T13:16:01.180Z,45.49
2019-03-24T13:18:32.417Z,45.37
2019-03-24T13:21:04.289Z,45.02
2019-03-24T13:23:35.326Z,45.25
2019-03-24T13:26:06.261Z,45.15
2019-03-24T13:28:37.325Z,44.76
2019-03-24T13:31:08.386Z,44.44
2019-03-24T13:33:39.414Z,44.41
2019-03-24T13:36:13.497Z,43.91
2019-03-24T13:38:46.351Z,43.76
2019-03-24T13:41:41.472Z,43.95
2019-03-24T13:44:12.280Z,44.40
2019-03-24T13:46:43.279Z,44.40
2019-03-24T13:49:14.319Z,44.45
2019-03-24T13:51:45.284Z,44.49
2019-03-24T13:54:16.357Z,44.56
2019-03-24T13:56:47.348Z,44.44
2019-03-24T13:59:19.387Z,44.44
2019-03-24T14:01:50.421Z,44.57
2019-03-24T14:04:21.745Z,44.38
2019-03-24T14:06:52.628Z,44.37
2019-03-24T14:09:23.746Z,44.68
2019-03-24T14:11:54.754Z,44.90
2019-03-24T14:14:25.943Z,45.01
2019-03-24T14:16:56.928Z,44.98
2019-03-24T14:19:27.885Z,44.99
2019-03-24T14:21:59.640Z,44.92
2019-03-24T14:24:30.972Z,44.71
2019-03-24T14:27:01.894Z,44.54
2019-03-24T14:29:34.027Z,44.42
2019-03-24T14:32:04.965Z,44.30
2019-03-24T14:34:35.940Z,44.09
2019-03-24T14:37:06.853Z,44.16
2019-03-24T14:39:37.904Z,43.63
2019-03-24T14:42:08.887Z,43.32
2019-03-24T14:44:39.856Z,43.29
2019-03-24T14:47:10.914Z,43.25
2019-03-24T14:49:41.902Z,42.97
2019-03-24T14:52:12.882Z,42.06
2019-03-24T14:54:43.920Z,41.97
2019-03-24T14:57:16.259Z,41.87
2019-03-24T14:59:47.359Z,42.01
2019-03-24T15:02:18.308Z,41.83
2019-03-24T15:04:49.304Z,41.69
2019-03-24T15:07:21.368Z,41.84
2019-03-24T15:09:52.385Z,42.03
2019-03-24T15:12:23.434Z,42.44
2019-03-24T15:14:54.472Z,42.41
2019-03-24T15:17:25.523Z,42.11
2019-03-24T15:19:56.551Z,42.31
2019-03-24T15:22:28.377Z,42.34
2019-03-24T15:24:59.557Z,42.28
2019-03-24T15:27:30.549Z,42.48
2019-03-24T15:30:01.579Z,42.76
2019-03-24T15:32:32.679Z,42.68
2019-03-24T15:35:05.322Z,42.91
2019-03-24T15:37:36.244Z,42.92
2019-03-24T15:40:07.814Z,43.04
2019-03-24T15:42:38.698Z,43.24
2019-03-24T15:45:10.389Z,43.15
2019-03-24T15:47:41.299Z,43.17
2019-03-24T15:50:12.290Z,43.24
2019-03-24T15:52:43.315Z,43.30
2019-03-24T15:55:14.367Z,43.27
2019-03-24T15:57:45.375Z,43.47
2019-03-24T16:00:30.749Z,45.71
2019-03-24T16:03:01.789Z,44.66
2019-03-24T16:05:32.894Z,44.66
2019-03-24T16:08:06.018Z,45.62
2019-03-24T16:10:37.153Z,45.36
2019-03-24T16:13:08.169Z,45.15
2019-03-24T16:15:39.270Z,44.80
2019-03-24T16:18:10.342Z,45.27
2019-03-24T16:20:41.285Z,44.81
2019-03-24T16:23:13.224Z,45.09
2019-03-24T16:25:44.256Z,45.23
2019-03-24T16:28:15.297Z,45.01
2019-03-24T16:30:46.591Z,44.83
2019-03-24T16:33:17.624Z,45.17
2019-03-24T16:35:48.672Z,45.59
2019-03-24T16:38:19.751Z,45.52
2019-03-24T16:40:51.228Z,45.62
2019-03-24T16:43:22.242Z,45.79
2019-03-24T16:45:53.357Z,46.46
2019-03-24T16:48:24.459Z,46.49
2019-03-24T16:50:56.368Z,46.83
2019-03-24T16:53:27.527Z,47.00
2019-03-24T16:55:58.920Z,47.70
2019-03-24T16:58:29.988Z,47.80
2019-03-24T17:01:01.289Z,47.29
2019-03-24T17:03:32.444Z,47.83
2019-03-24T17:06:05.759Z,47.60
2019-03-24T17:08:36.822Z,47.89
2019-03-24T17:11:07.772Z,48.16
2019-03-24T17:13:38.778Z,48.55
2019-03-24T17:16:09.911Z,48.32
2019-03-24T17:18:41.987Z,48.37
2019-03-24T17:21:14.423Z,48.40
2019-03-24T17:23:45.512Z,49.19
2019-03-24T17:29:10.324Z,49.47
2019-03-24T17:31:41.184Z,49.71
2019-03-24T17:34:12.336Z,50.15
2019-03-24T17:36:43.469Z,50.00
2019-03-24T17:39:14.614Z,50.04
2019-03-24T17:41:47.911Z,49.16
2019-03-24T17:44:19.104Z,49.28
2019-03-24T17:46:50.312Z,50.31
2019-03-24T17:49:21.323Z,49.17
2019-03-24T17:52:00.383Z,48.79
2019-03-24T17:54:26.829Z,48.84
2019-03-24T17:56:58.846Z,46.35
2019-03-24T17:59:30.162Z,43.31
2019-03-24T18:02:01.409Z,43.15
2019-03-24T18:04:34.124Z,43.70
2019-03-24T18:07:05.130Z,43.52
2019-03-24T18:09:36.350Z,42.91
2019-03-24T18:12:08.579Z,42.95
2019-03-24T18:14:39.616Z,43.14
2019-03-24T18:17:10.762Z,43.42
2019-03-24T18:19:41.797Z,43.58
2019-03-24T18:22:12.976Z,43.99
2019-03-24T18:24:45.031Z,44.22
2019-03-24T18:27:16.256Z,43.73
2019-03-24T18:29:47.611Z,44.47
2019-03-24T18:32:18.925Z,44.00
2019-03-24T18:34:50.067Z,44.86
2019-03-24T18:37:21.120Z,43.51
2019-03-24T18:39:52.287Z,43.83
2019-03-24T18:42:23.503Z,44.17
2019-03-24T18:44:54.523Z,43.10
2019-03-24T18:47:27.174Z,42.42
2019-03-24T18:49:58.366Z,41.62
2019-03-24T18:52:30.889Z,41.62
2019-03-24T18:55:01.932Z,41.35
2019-03-24T18:57:33.260Z,41.54
2019-03-24T19:00:11.628Z,41.85
2019-03-24T19:02:42.681Z,41.07
2019-03-24T19:05:13.727Z,40.63
2019-03-24T19:07:45.838Z,40.63
2019-03-24T19:10:16.989Z,40.70
2019-03-24T19:12:48.093Z,40.71
2019-03-24T19:15:20.729Z,40.50
2019-03-24T19:17:51.915Z,40.71
2019-03-24T19:20:23.015Z,40.89
2019-03-24T19:22:54.133Z,40.68
2019-03-24T19:25:26.096Z,40.70
2019-03-24T19:27:57.239Z,40.86
2019-03-24T19:30:37.225Z,40.52
2019-03-24T19:33:08.283Z,40.51
2019-03-24T19:35:39.498Z,40.42
2019-03-24T19:38:15.772Z,40.41
2019-03-24T19:41:12.136Z,40.37
2019-03-24T19:43:48.151Z,40.60
2019-03-24T19:46:19.711Z,40.33
2019-03-24T19:48:50.933Z,40.54
2019-03-24T19:51:22.315Z,40.21
2019-03-24T19:53:54.628Z,40.12
2019-03-24T19:56:26.025Z,39.81
2019-03-24T19:58:57.145Z,39.87
2019-03-24T20:01:27.958Z,39.98
2019-03-24T20:03:58.952Z,39.84
2019-03-24T20:06:32.730Z,40.27
2019-03-24T20:09:05.459Z,40.96
2019-03-24T20:11:36.573Z,40.63
2019-03-24T20:14:07.933Z,40.65
2019-03-24T20:16:39.123Z,40.62
2019-03-24T20:19:10.017Z,40.97
2019-03-24T20:21:40.908Z,40.81
2019-03-24T20:24:12.342Z,41.02
2019-03-24T20:26:44.541Z,40.74
2019-03-24T20:29:16.115Z,40.82
2019-03-24T20:31:49.863Z,40.65
2019-03-24T20:34:23.079Z,41.13
2019-03-24T20:36:54.185Z,41.19
2019-03-24T20:39:26.311Z,40.89
2019-03-24T20:41:57.492Z,41.11
2019-03-24T20:44:31.305Z,40.93
2019-03-24T20:47:02.276Z,40.92
2019-03-24T20:49:34.795Z,40.71
2019-03-24T20:52:07.583Z,40.90
2019-03-24T20:54:39.615Z,40.71
2019-03-24T20:57:10.630Z,40.85
2019-03-24T20:59:46.060Z,40.66
2019-03-24T21:02:17.119Z,40.58
2019-03-24T21:04:48.444Z,40.98
2019-03-24T21:07:21.035Z,41.36
2019-03-24T21:09:53.739Z,41.33
2019-03-24T21:12:26.377Z,41.25
2019-03-24T21:14:57.630Z,41.27
2019-03-24T21:17:28.739Z,41.57
2019-03-24T21:19:59.837Z,41.40
2019-03-24T21:22:30.640Z,41.28
2019-03-24T21:25:01.639Z,41.52
2019-03-24T21:27:33.981Z,41.52
2019-03-24T21:30:07.074Z,41.47
2019-03-24T21:32:38.522Z,41.74
2019-03-24T21:35:09.562Z,41.92
2019-03-24T21:37:40.629Z,42.10
2019-03-24T21:40:11.428Z,42.44
2019-03-24T21:42:42.525Z,42.33
2019-03-24T21:45:13.375Z,42.41
2019-03-24T21:47:44.233Z,42.62
2019-03-24T21:50:15.190Z,42.86
2019-03-24T21:52:46.039Z,42.74
2019-03-24T21:55:16.958Z,42.87
2019-03-24T21:57:57.191Z,42.99
2019-03-24T22:00:29.722Z,43.04
2019-03-24T22:03:00.649Z,42.93
2019-03-24T22:05:32.920Z,42.92
2019-03-24T22:08:05.403Z,43.26
2019-03-24T22:10:36.336Z,43.60
2019-03-24T22:13:07.136Z,43.79
2019-03-24T22:15:38.059Z,43.82
2019-03-24T22:18:08.972Z,43.77
2019-03-24T22:20:48.524Z,44.11
2019-03-24T22:23:12.483Z,44.14
2019-03-24T22:25:43.344Z,44.36
2019-03-24T22:28:15.268Z,44.38
2019-03-24T22:30:47.349Z,44.27
2019-03-24T22:33:18.240Z,44.17
2019-03-24T22:35:49.418Z,44.28
2019-03-24T22:38:22.173Z,44.06
2019-03-24T22:40:53.001Z,44.35
2019-03-24T22:43:23.804Z,44.63
2019-03-24T22:45:56.042Z,44.14
2019-03-24T22:48:27.653Z,43.96
2019-03-24T22:50:58.657Z,43.99
2019-03-24T22:53:29.586Z,43.98
2019-03-24T22:56:00.535Z,44.16
2019-03-24T22:58:31.374Z,43.95
2019-03-24T23:01:02.591Z,44.09
2019-03-24T23:03:35.112Z,44.31
2019-03-24T23:06:06.154Z,44.41
2019-03-24T23:08:38.291Z,44.44
2019-03-24T23:11:09.274Z,44.56
2019-03-24T23:13:40.104Z,44.54
2019-03-24T23:16:10.990Z,44.83
2019-03-24T23:18:41.841Z,45.10
2019-03-24T23:21:12.830Z,45.11
2019-03-24T23:23:43.653Z,45.19
2019-03-24T23:26:14.802Z,45.10
2019-03-24T23:28:46.641Z,45.16
2019-03-24T23:31:17.987Z,45.31
2019-03-24T23:33:48.936Z,45.49
2019-03-24T23:36:20.014Z,45.68
2019-03-24T23:38:51.169Z,45.56
2019-03-24T23:41:22.263Z,45.79
2019-03-24T23:43:53.272Z,45.93
2019-03-24T23:46:24.248Z,46.29
2019-03-24T23:48:55.574Z,46.09
2019-03-24T23:51:26.671Z,46.00
2019-03-24T23:53:57.683Z,45.98
2019-03-24T23:56:28.790Z,46.12
2019-03-24T23:58:59.881Z,46.25
